createdAt,value
2023-05-10T00:00:43.510Z,100.00
2023-05-10T00:03:10.122Z,100.00
2023-05-10T00:05:36.655Z,100.00
2023-05-10T00:08:03.162Z,100.00
2023-05-10T00:10:29.625Z,100.00
2023-05-10T00:12:56.114Z,100.00
2023-05-10T00:15:22.736Z,100.00
2023-05-10T00:17:49.426Z,100.00
2023-05-10T00:20:16.392Z,100.00
2023-05-10T00:22:43.197Z,100.00
2023-05-10T00:25:10.655Z,100.00
2023-05-10T00:27:37.193Z,100.00
2023-05-10T00:30:04.032Z,100.00
2023-05-10T00:32:30.616Z,100.00
2023-05-10T00:34:57.108Z,100.00
2023-05-10T00:37:23.569Z,100.00
2023-05-10T00:39:50.061Z,100.00
2023-05-10T00:42:16.577Z,100.00
2023-05-10T00:44:43.098Z,100.00
2023-05-10T00:47:10.193Z,100.00
2023-05-10T00:49:37.370Z,100.00
2023-05-10T00:52:04.320Z,100.00
2023-05-10T00:54:31.266Z,100.00
2023-05-10T00:56:58.311Z,100.00
2023-05-10T00:59:24.930Z,100.00
2023-05-10T01:01:52.632Z,100.00
2023-05-10T01:04:20.978Z,100.00
2023-05-10T01:06:47.529Z,100.00
2023-05-10T01:09:14.121Z,100.00
2023-05-10T01:11:41.159Z,100.00
2023-05-10T01:14:08.395Z,100.00
2023-05-10T01:16:39.020Z,100.00
2023-05-10T01:19:18.079Z,100.00
2023-05-10T01:22:11.388Z,100.00
2023-05-10T01:24:59.584Z,100.00
2023-05-10T01:27:46.267Z,100.00
2023-05-10T01:30:37.384Z,100.00
2023-05-10T01:33:14.638Z,100.00
2023-05-10T01:35:47.251Z,100.00
2023-05-10T01:38:21.255Z,100.00
2023-05-10T01:41:05.925Z,100.00
2023-05-10T01:43:43.742Z,100.00
2023-05-10T01:46:21.696Z,100.00
2023-05-10T01:48:59.733Z,100.00
2023-05-10T01:51:30.561Z,100.00
2023-05-10T01:54:02.538Z,100.00
2023-05-10T01:56:31.832Z,100.00
2023-05-10T01:59:01.832Z,100.00
2023-05-10T02:01:28.876Z,100.00
2023-05-10T02:03:57.981Z,100.00
2023-05-10T02:06:26.236Z,100.00
2023-05-10T02:08:54.273Z,100.00
2023-05-10T02:11:21.941Z,100.00
2023-05-10T02:13:51.411Z,100.00
2023-05-10T02:16:19.352Z,100.00
2023-05-10T02:18:47.802Z,100.00
2023-05-10T02:21:16.331Z,100.00
2023-05-10T02:23:44.207Z,100.00
2023-05-10T02:26:12.963Z,100.00
2023-05-10T02:28:41.828Z,100.00
2023-05-10T02:31:10.783Z,100.00
2023-05-10T02:33:41.303Z,100.00
2023-05-10T02:36:10.097Z,100.00
2023-05-10T02:38:37.739Z,100.00
2023-05-10T02:41:06.278Z,100.00
2023-05-10T02:43:34.810Z,100.00
2023-05-10T02:46:01.748Z,100.00
2023-05-10T02:48:28.963Z,100.00
2023-05-10T02:51:01.278Z,100.00
2023-05-10T02:53:33.119Z,100.00
2023-05-10T02:56:09.040Z,100.00
2023-05-10T02:58:35.630Z,100.00
2023-05-10T03:01:02.235Z,100.00
2023-05-10T03:03:28.762Z,100.00
2023-05-10T03:05:56.865Z,100.00
2023-05-10T03:08:24.555Z,100.00
2023-05-10T03:11:33.115Z,100.00
2023-05-10T03:14:14.327Z,100.00
2023-05-10T03:16:47.962Z,100.00
2023-05-10T03:19:22.896Z,100.00
2023-05-10T03:21:53.604Z,100.00
2023-05-10T03:24:22.734Z,100.00
2023-05-10T03:26:51.162Z,100.00
2023-05-10T03:29:18.340Z,100.00
2023-05-10T03:31:45.229Z,100.00
2023-05-10T03:34:12.236Z,100.00
2023-05-10T03:36:38.866Z,100.00
2023-05-10T03:39:05.315Z,100.00
2023-05-10T03:41:31.865Z,100.00
2023-05-10T03:43:59.539Z,100.00
2023-05-10T03:46:26.061Z,100.00
2023-05-10T03:48:52.789Z,100.00
2023-05-10T03:51:19.396Z,100.00
2023-05-10T03:53:45.848Z,100.00
2023-05-10T03:56:12.373Z,100.00
2023-05-10T03:58:38.826Z,100.00
2023-05-10T04:01:05.357Z,100.00
2023-05-10T04:03:31.918Z,100.00
2023-05-10T04:06:02.769Z,100.00
2023-05-10T04:08:29.969Z,100.00
2023-05-10T04:11:06.577Z,100.00
2023-05-10T04:13:33.226Z,100.00
2023-05-10T04:15:59.752Z,100.00
2023-05-10T04:18:26.481Z,100.00
2023-05-10T04:20:53.154Z,100.00
2023-05-10T04:23:19.639Z,100.00
2023-05-10T04:25:46.104Z,100.00
2023-05-10T04:28:12.751Z,100.00
2023-05-10T04:30:39.913Z,100.00
2023-05-10T04:33:06.432Z,100.00
2023-05-10T04:35:32.998Z,100.00
2023-05-10T04:37:59.534Z,100.00
2023-05-10T04:40:26.782Z,100.00
2023-05-10T04:42:53.213Z,100.00
2023-05-10T04:45:19.763Z,100.00
2023-05-10T04:47:46.251Z,100.00
2023-05-10T04:50:12.883Z,100.00
2023-05-10T04:52:39.282Z,100.00
2023-05-10T04:55:07.724Z,100.00
2023-05-10T04:57:34.165Z,100.00
2023-05-10T05:00:01.040Z,100.00
2023-05-10T05:02:27.639Z,100.00
2023-05-10T05:04:54.136Z,100.00
2023-05-10T05:07:20.613Z,100.00
2023-05-10T05:09:47.026Z,100.00
2023-05-10T05:12:15.193Z,100.00
2023-05-10T05:14:42.235Z,100.00
2023-05-10T05:17:09.091Z,100.00
2023-05-10T05:19:35.726Z,100.00
2023-05-10T05:22:02.508Z,100.00
2023-05-10T05:24:28.922Z,100.00
2023-05-10T05:26:55.460Z,100.00
2023-05-10T05:29:21.904Z,100.00
2023-05-10T05:31:48.366Z,100.00
2023-05-10T05:34:14.926Z,100.00
2023-05-10T05:36:41.386Z,100.00
2023-05-10T05:39:08.267Z,100.00
2023-05-10T05:41:34.729Z,100.00
2023-05-10T05:44:01.166Z,100.00
2023-05-10T05:46:27.686Z,100.00
2023-05-10T05:48:54.202Z,100.00
2023-05-10T05:51:21.093Z,100.00
2023-05-10T05:53:47.510Z,100.00
2023-05-10T05:56:13.945Z,100.00
2023-05-10T05:58:40.630Z,100.00
2023-05-10T06:01:07.521Z,100.00
2023-05-10T06:03:34.193Z,100.00
2023-05-10T06:06:00.789Z,100.00
2023-05-10T06:08:27.339Z,100.00
2023-05-10T06:10:53.802Z,100.00
2023-05-10T06:13:20.520Z,100.00
2023-05-10T06:15:47.221Z,100.00
2023-05-10T06:18:13.800Z,100.00
2023-05-10T06:20:42.286Z,100.00
2023-05-10T06:23:08.748Z,100.00
2023-05-10T06:25:35.272Z,100.00
2023-05-10T06:28:02.613Z,100.00
2023-05-10T06:30:30.156Z,100.00
2023-05-10T06:32:57.100Z,100.00
2023-05-10T06:35:23.674Z,100.00
2023-05-10T06:37:50.498Z,100.00
2023-05-10T06:40:17.224Z,100.00
2023-05-10T06:42:44.230Z,100.00
2023-05-10T06:45:11.227Z,100.00
2023-05-10T06:47:39.243Z,100.00
2023-05-10T06:50:06.534Z,100.00
2023-05-10T06:52:33.074Z,100.00
2023-05-10T06:54:59.613Z,100.00
2023-05-10T06:57:31.786Z,100.00
2023-05-10T06:59:59.708Z,100.00
2023-05-10T07:02:26.363Z,100.00
2023-05-10T07:04:53.380Z,100.00
2023-05-10T07:07:20.166Z,100.00
2023-05-10T07:09:46.853Z,100.00
2023-05-10T07:12:15.364Z,100.00
2023-05-10T07:14:42.502Z,100.00
2023-05-10T07:17:09.203Z,100.00
2023-05-10T07:19:36.287Z,99.24
2023-05-10T07:22:02.769Z,98.33
2023-05-10T07:24:29.416Z,99.58
2023-05-10T07:26:55.901Z,98.30
2023-05-10T07:29:22.308Z,98.30
2023-05-10T07:31:48.819Z,98.65
2023-05-10T07:34:15.276Z,98.06
2023-05-10T07:36:41.737Z,97.30
2023-05-10T07:39:08.513Z,97.11
2023-05-10T07:41:35.815Z,96.47
2023-05-10T07:44:02.532Z,97.29
2023-05-10T07:46:29.590Z,97.38
2023-05-10T07:48:56.095Z,96.96
2023-05-10T07:51:22.603Z,95.85
2023-05-10T07:53:49.019Z,94.61
2023-05-10T07:56:26.252Z,94.12
2023-05-10T07:58:52.930Z,95.23
2023-05-10T08:01:19.446Z,94.95
2023-05-10T08:03:45.915Z,95.22
2023-05-10T08:06:12.418Z,94.67
2023-05-10T08:08:39.242Z,94.97
2023-05-10T08:11:05.769Z,95.55
2023-05-10T08:13:32.443Z,95.26
2023-05-10T08:15:58.917Z,92.50
2023-05-10T08:18:25.662Z,93.84
2023-05-10T08:20:52.151Z,94.63
2023-05-10T08:23:18.490Z,95.12
2023-05-10T08:25:44.823Z,95.86
2023-05-10T08:28:12.062Z,94.63
2023-05-10T08:30:38.459Z,94.03
2023-05-10T08:33:04.799Z,92.64
2023-05-10T08:35:31.327Z,91.05
2023-05-10T08:37:57.662Z,89.96
2023-05-10T08:40:25.251Z,89.03
2023-05-10T08:42:55.854Z,87.71
2023-05-10T08:45:24.050Z,87.47
2023-05-10T08:47:51.289Z,87.39
2023-05-10T08:50:18.803Z,87.73
2023-05-10T08:52:46.281Z,89.02
2023-05-10T08:55:12.623Z,88.77
2023-05-10T08:57:39.052Z,88.13
2023-05-10T09:00:06.364Z,87.21
2023-05-10T09:02:32.688Z,88.45
2023-05-10T09:04:59.153Z,89.05
2023-05-10T09:07:25.796Z,89.72
2023-05-10T09:09:53.012Z,90.61
2023-05-10T09:12:19.332Z,89.77
2023-05-10T09:14:46.159Z,89.27
2023-05-10T09:17:12.663Z,88.71
2023-05-10T09:19:39.038Z,89.07
2023-05-10T09:22:05.715Z,89.06
2023-05-10T09:24:32.153Z,89.18
2023-05-10T09:27:01.694Z,89.27
2023-05-10T09:29:39.478Z,89.54
2023-05-10T09:32:05.962Z,91.13
2023-05-10T09:34:33.240Z,91.61
2023-05-10T09:37:02.027Z,91.85
2023-05-10T09:39:34.851Z,91.22
2023-05-10T09:42:04.679Z,91.88
2023-05-10T09:44:31.992Z,91.41
2023-05-10T09:47:00.303Z,90.51
2023-05-10T09:49:26.657Z,91.09
2023-05-10T09:52:03.635Z,90.53
2023-05-10T09:54:30.435Z,87.35
2023-05-10T09:56:56.773Z,86.58
2023-05-10T09:59:25.532Z,85.82
2023-05-10T10:01:52.559Z,84.22
2023-05-10T10:04:20.905Z,84.46
2023-05-10T10:06:47.220Z,82.50
2023-05-10T10:09:14.852Z,80.11
2023-05-10T10:11:42.404Z,80.47
2023-05-10T10:14:08.735Z,80.12
2023-05-10T10:16:35.459Z,79.72
2023-05-10T10:19:02.083Z,79.44
2023-05-10T10:21:28.607Z,79.08
2023-05-10T10:23:54.979Z,77.36
2023-05-10T10:26:22.058Z,75.48
2023-05-10T10:29:06.996Z,70.99
2023-05-10T10:31:46.198Z,70.24
2023-05-10T10:34:26.200Z,70.41
2023-05-10T10:36:52.796Z,72.78
2023-05-10T10:39:19.875Z,72.70
2023-05-10T10:41:51.953Z,72.68
2023-05-10T10:44:25.223Z,71.84
2023-05-10T10:49:27.617Z,65.02
2023-05-10T10:52:12.701Z,65.03
2023-05-10T10:54:39.346Z,63.01
2023-05-10T10:57:15.221Z,64.56
2023-05-10T10:59:47.818Z,64.92
2023-05-10T11:02:32.990Z,62.27
2023-05-10T11:04:59.342Z,60.56
2023-05-10T11:07:25.840Z,61.90
2023-05-10T11:09:52.822Z,62.60
2023-05-10T11:12:19.231Z,63.84
2023-05-10T11:14:50.589Z,64.51
2023-05-10T11:17:23.998Z,65.50
2023-05-10T11:20:10.040Z,62.88
2023-05-10T11:22:52.751Z,56.79
2023-05-10T11:25:19.252Z,57.99
2023-05-10T11:45:19.918Z,69.13
2023-05-10T11:47:49.708Z,68.52
2023-05-10T11:50:16.379Z,64.47
2023-05-10T11:52:42.866Z,57.09
2023-05-10T11:55:09.301Z,52.10
2023-05-10T11:57:36.244Z,50.46
2023-05-10T12:00:04.690Z,51.58
2023-05-10T12:02:31.373Z,48.94
2023-05-10T12:04:58.243Z,48.44
2023-05-10T12:07:24.677Z,49.38
2023-05-10T12:10:09.949Z,47.69
2023-05-10T12:12:43.936Z,44.45
2023-05-10T12:15:17.984Z,45.76
2023-05-10T12:17:45.092Z,43.00
2023-05-10T12:20:17.931Z,41.02
2023-05-10T12:23:04.258Z,43.18
2023-05-10T12:25:31.518Z,40.08
2023-05-10T12:27:59.209Z,41.03
2023-05-10T12:30:29.487Z,42.06
2023-05-10T12:33:00.913Z,45.93
2023-05-10T12:35:27.349Z,45.54
2023-05-10T12:37:53.743Z,48.94
2023-05-10T12:40:20.261Z,50.66
2023-05-10T12:42:46.621Z,51.66
2023-05-10T12:45:13.139Z,50.87
2023-05-10T12:47:42.195Z,51.43
2023-05-10T12:53:49.899Z,50.96
2023-05-10T12:59:40.129Z,55.80
2023-05-10T13:02:07.078Z,55.80
2023-05-10T13:04:33.449Z,54.95
2023-05-10T13:07:00.013Z,54.55
2023-05-10T13:09:27.547Z,52.38
2023-05-10T13:11:56.719Z,49.14
2023-05-10T13:14:23.242Z,48.00
2023-05-10T13:16:49.668Z,44.83
2023-05-10T13:19:16.752Z,44.65
2023-05-10T13:21:43.721Z,46.68
2023-05-10T13:24:10.098Z,47.93
2023-05-10T13:26:40.372Z,45.71
2023-05-10T13:29:06.742Z,43.55
2023-05-10T13:31:33.238Z,47.77
2023-05-10T13:33:59.858Z,48.59
2023-05-10T13:36:26.199Z,46.13
2023-05-10T13:38:52.587Z,46.71
2023-05-10T13:41:19.135Z,50.72
2023-05-10T13:43:45.680Z,52.23
2023-05-10T13:46:12.059Z,54.72
2023-05-10T13:48:39.249Z,56.62
2023-05-10T13:51:05.826Z,54.72
2023-05-10T13:53:32.166Z,49.76
2023-05-10T13:55:58.622Z,47.30
2023-05-10T13:58:24.971Z,46.33
2023-05-10T14:00:51.379Z,47.03
2023-05-10T14:03:19.601Z,50.99
2023-05-10T14:05:46.423Z,52.42
2023-05-10T14:11:12.186Z,53.18
2023-05-10T14:13:48.164Z,54.22
2023-05-10T14:16:15.814Z,55.02
2023-05-10T14:18:42.428Z,53.82
2023-05-10T14:21:08.876Z,52.32
2023-05-10T14:23:35.189Z,51.07
2023-05-10T14:26:01.591Z,52.71
2023-05-10T14:28:27.965Z,54.93
2023-05-10T14:30:54.345Z,55.56
2023-05-10T14:33:21.527Z,56.19
2023-05-10T14:35:48.134Z,56.43
2023-05-10T14:38:14.826Z,57.48
2023-05-10T14:40:41.285Z,58.42
2023-05-10T14:43:07.621Z,58.63
2023-05-10T14:45:34.142Z,59.10
2023-05-10T14:48:01.213Z,60.73
2023-05-10T14:50:36.503Z,61.66
2023-05-10T14:53:03.876Z,62.20
2023-05-10T14:55:30.199Z,64.04
2023-05-10T14:57:57.144Z,64.38
2023-05-10T15:00:23.535Z,66.16
2023-05-10T15:02:50.663Z,66.74
2023-05-10T15:05:17.710Z,67.64
2023-05-10T15:07:44.921Z,68.82
2023-05-10T15:10:12.306Z,68.83
2023-05-10T15:12:38.951Z,68.66
2023-05-10T15:15:05.951Z,68.52
2023-05-10T15:17:32.618Z,68.62
2023-05-10T15:19:58.975Z,69.02
2023-05-10T15:22:25.438Z,67.46
2023-05-10T15:24:51.812Z,67.54
2023-05-10T15:27:18.150Z,66.53
2023-05-10T15:29:44.527Z,64.89
2023-05-10T15:32:11.076Z,63.39
2023-05-10T15:34:37.475Z,60.30
2023-05-10T15:37:03.865Z,56.27
2023-05-10T15:39:30.478Z,55.18
2023-05-10T15:41:56.882Z,52.32
2023-05-10T15:44:23.302Z,51.80
2023-05-10T15:46:49.747Z,52.47
2023-05-10T15:49:16.125Z,51.71
2023-05-10T15:51:42.469Z,51.15
2023-05-10T15:54:09.858Z,48.98
2023-05-10T15:56:36.245Z,48.59
2023-05-10T15:59:03.619Z,48.35
2023-05-10T16:01:30.902Z,49.20
2023-05-10T16:03:57.319Z,49.68
2023-05-10T16:06:23.660Z,49.99
2023-05-10T16:08:50.354Z,48.13
2023-05-10T16:11:16.912Z,48.64
2023-05-10T16:13:43.205Z,50.01
2023-05-10T16:16:09.687Z,52.01
2023-05-10T16:18:36.426Z,50.97
2023-05-10T16:21:03.386Z,51.01
2023-05-10T16:23:29.794Z,51.76
2023-05-10T16:25:56.191Z,50.87
2023-05-10T16:28:22.646Z,49.36
2023-05-10T16:30:49.429Z,50.60
2023-05-10T16:33:16.660Z,51.29
2023-05-10T16:35:43.721Z,52.46
2023-05-10T16:38:10.064Z,54.08
2023-05-10T16:40:36.433Z,56.00
2023-05-10T16:43:02.726Z,57.38
2023-05-10T16:45:30.899Z,57.99
2023-05-10T16:47:57.350Z,59.06
2023-05-10T16:50:23.852Z,59.76
2023-05-10T16:52:50.300Z,59.89
2023-05-10T16:55:16.727Z,60.22
2023-05-10T16:57:43.228Z,61.29
2023-05-10T17:00:11.864Z,61.38
2023-05-10T17:02:39.161Z,62.04
2023-05-10T17:05:05.654Z,62.66
2023-05-10T17:07:31.976Z,61.32
2023-05-10T17:09:59.349Z,62.11
2023-05-10T17:12:26.038Z,62.08
2023-05-10T17:14:52.375Z,62.88
2023-05-10T17:17:18.767Z,63.13
2023-05-10T17:19:45.426Z,62.80
2023-05-10T17:22:14.864Z,63.38
2023-05-10T17:24:41.245Z,64.05
2023-05-10T17:27:08.251Z,64.22
2023-05-10T17:29:34.628Z,64.36
2023-05-10T17:32:01.108Z,65.70
2023-05-10T17:34:27.627Z,65.82
2023-05-10T17:36:53.953Z,66.97
2023-05-10T17:39:20.444Z,66.43
2023-05-10T17:41:46.852Z,66.66
2023-05-10T17:44:13.803Z,67.17
2023-05-10T17:46:40.107Z,67.84
2023-05-10T17:49:06.544Z,67.26
2023-05-10T17:51:33.178Z,67.09
2023-05-10T17:54:01.428Z,67.20
2023-05-10T17:56:28.731Z,66.75
2023-05-10T17:58:55.039Z,67.41
2023-05-10T18:01:21.424Z,67.61
2023-05-10T18:03:49.300Z,68.57
2023-05-10T18:06:15.648Z,69.28
2023-05-10T18:08:42.479Z,68.99
2023-05-10T18:11:08.829Z,69.00
2023-05-10T18:13:35.159Z,69.05
2023-05-10T18:16:01.525Z,69.53
2023-05-10T18:18:27.901Z,69.23
2023-05-10T18:20:57.497Z,69.17
2023-05-10T18:23:24.481Z,69.57
2023-05-10T18:25:51.791Z,69.68
2023-05-10T18:28:18.449Z,69.65
2023-05-10T18:30:44.919Z,70.02
2023-05-10T18:33:11.969Z,70.09
2023-05-10T18:35:40.160Z,69.75
2023-05-10T18:38:07.991Z,70.71
2023-05-10T18:40:34.297Z,71.18
2023-05-10T18:43:00.621Z,71.20
2023-05-10T18:45:26.994Z,71.50
2023-05-10T18:47:53.548Z,72.21
2023-05-10T18:50:20.020Z,72.08
2023-05-10T18:52:46.827Z,72.39
2023-05-10T18:55:13.469Z,72.38
2023-05-10T18:57:43.069Z,72.15
2023-05-10T19:00:10.420Z,72.96
2023-05-10T19:02:37.150Z,72.78
2023-05-10T19:05:03.739Z,73.01
2023-05-10T19:07:30.221Z,73.28
2023-05-10T19:09:56.818Z,72.87
2023-05-10T19:12:23.187Z,73.61
2023-05-10T19:14:49.548Z,73.35
2023-05-10T19:17:20.237Z,73.56
2023-05-10T19:19:49.766Z,74.14
2023-05-10T19:22:16.364Z,74.06
2023-05-10T19:24:42.807Z,74.29
2023-05-10T19:27:09.391Z,74.92
2023-05-10T19:29:35.740Z,75.16
2023-05-10T19:32:05.043Z,75.10
2023-05-10T19:34:31.543Z,74.59
2023-05-10T19:36:57.871Z,74.76
2023-05-10T19:39:24.190Z,75.08
2023-05-10T19:41:50.876Z,75.11
2023-05-10T19:44:19.905Z,75.19
2023-05-10T19:46:46.408Z,75.71
2023-05-10T19:49:12.928Z,75.87
2023-05-10T19:51:39.268Z,76.42
2023-05-10T19:54:05.612Z,76.75
2023-05-10T19:56:31.918Z,77.08
2023-05-10T19:58:58.237Z,76.63
2023-05-10T20:01:24.756Z,77.20
2023-05-10T20:03:51.640Z,77.51
2023-05-10T20:06:18.007Z,77.45
2023-05-10T20:08:44.734Z,77.52
2023-05-10T20:11:11.275Z,77.70
2023-05-10T20:13:38.166Z,77.99
2023-05-10T20:16:06.120Z,78.19
2023-05-10T20:18:32.468Z,78.74
2023-05-10T20:20:59.956Z,78.58
2023-05-10T20:23:26.355Z,78.91
2023-05-10T20:25:53.602Z,79.09
2023-05-10T20:28:23.936Z,79.21
2023-05-10T20:30:54.111Z,79.33
2023-05-10T20:33:21.048Z,79.05
2023-05-10T20:35:47.370Z,79.26
2023-05-10T20:38:13.706Z,79.80
2023-05-10T20:40:40.156Z,79.88
2023-05-10T20:43:06.499Z,79.74
2023-05-10T20:45:32.965Z,79.95
2023-05-10T20:47:59.362Z,80.17
2023-05-10T20:50:25.796Z,80.25
2023-05-10T20:52:52.397Z,80.82
2023-05-10T20:55:19.012Z,80.93
2023-05-10T20:57:46.444Z,80.59
2023-05-10T21:00:13.929Z,81.06
2023-05-10T21:02:44.393Z,81.22
2023-05-10T21:05:10.961Z,81.34
2023-05-10T21:07:37.760Z,81.29
2023-05-10T21:10:04.480Z,81.08
2023-05-10T21:12:30.849Z,81.27
2023-05-10T21:14:57.288Z,81.37
2023-05-10T21:17:23.590Z,81.48
2023-05-10T21:19:50.444Z,81.28
2023-05-10T21:22:16.788Z,81.57
2023-05-10T21:24:43.419Z,81.78
2023-05-10T21:27:09.897Z,82.23
2023-05-10T21:29:36.204Z,82.21
2023-05-10T21:32:02.815Z,82.69
2023-05-10T21:34:29.357Z,82.56
2023-05-10T21:36:55.694Z,83.03
2023-05-10T21:39:22.201Z,82.96
2023-05-10T21:41:48.602Z,83.31
2023-05-10T21:44:14.984Z,83.88
2023-05-10T21:46:41.309Z,84.32
2023-05-10T21:49:08.545Z,84.90
2023-05-10T21:51:35.755Z,85.53
2023-05-10T21:54:02.122Z,86.29
2023-05-10T21:56:28.416Z,87.45
2023-05-10T21:58:54.744Z,87.41
2023-05-10T22:01:21.151Z,88.25
2023-05-10T22:03:47.630Z,89.41
2023-05-10T22:06:14.059Z,89.71
2023-05-10T22:08:40.560Z,90.33
2023-05-10T22:11:06.892Z,91.25
2023-05-10T22:13:33.208Z,91.55
2023-05-10T22:15:59.523Z,91.83
2023-05-10T22:18:25.992Z,92.71
2023-05-10T22:20:52.417Z,93.75
2023-05-10T22:23:18.760Z,93.99
2023-05-10T22:25:45.099Z,94.26
2023-05-10T22:28:11.465Z,95.02
2023-05-10T22:30:37.926Z,95.17
2023-05-10T22:33:04.265Z,96.41
2023-05-10T22:35:30.713Z,96.88
2023-05-10T22:37:57.015Z,96.51
2023-05-10T22:40:23.341Z,97.08
2023-05-10T22:42:49.651Z,96.87
2023-05-10T22:45:16.028Z,96.96
2023-05-10T22:47:42.369Z,98.18
2023-05-10T22:50:09.229Z,97.92
2023-05-10T22:52:35.693Z,98.74
2023-05-10T22:55:02.045Z,98.55
2023-05-10T22:57:28.363Z,98.17
2023-05-10T22:59:54.760Z,98.69
2023-05-10T23:02:21.260Z,99.39
2023-05-10T23:04:47.634Z,98.60
2023-05-10T23:07:14.035Z,99.23
2023-05-10T23:09:40.420Z,99.82
2023-05-10T23:12:06.762Z,99.70
2023-05-10T23:14:33.116Z,99.57
2023-05-10T23:16:59.494Z,100.00
2023-05-10T23:19:25.993Z,100.00
2023-05-10T23:21:52.344Z,100.00
2023-05-10T23:24:18.734Z,99.88
2023-05-10T23:26:46.360Z,100.00
2023-05-10T23:29:12.762Z,100.00
2023-05-10T23:31:45.232Z,100.00
2023-05-10T23:34:12.116Z,100.00
2023-05-10T23:36:38.734Z,100.00
2023-05-10T23:39:05.070Z,100.00
2023-05-10T23:41:31.628Z,100.00
2023-05-10T23:43:57.932Z,100.00
2023-05-10T23:46:24.436Z,100.00
2023-05-10T23:48:50.871Z,100.00
2023-05-10T23:51:17.172Z,100.00
2023-05-10T23:53:43.496Z,100.00
2023-05-10T23:56:09.810Z,100.00
2023-05-10T23:58:36.112Z,100.00
